Jerry W. Tichenor — WDB9187 — position and weather

sailwx.info

Track history (hours):
 
Tides and Currents Weather Stations Pressure Air Temp Water Temp Dewpoint Dewpoint Depression Visibility Wind Speed Wind Dir Waves Ship Positions

Jerry W. Tichenor

Owner: Blessey Enterprises, Inc., harahan, LA. More information available from US FCC via Universal Licensing System and Coast Guard Vessel Documentation Center.

Last reported at 2018-Feb-20 13:30 UTC. Time now 2018-Feb-20 13:44 UTC.
Position N 29°21' W 094°49'.

Length 92 m; draft 9.6 m.

Type: Towing. MMSI: 366971520.

Date/timePositionNaut miles runAvg speedWind from/ knotsBaromVisibWave heightAir tempDewpointWater temp
2018-Feb-20 13:30N 29°21' W 094°49'0 0.0
2018-Feb-20 11:41N 29°21' W 094°49'0 0.0
2018-Feb-20 11:30N 29°21' W 094°49'0 0.0
2018-Feb-20 10:57N 29°21' W 094°49'3 4.6
2018-Feb-20 10:17N 29°19' W 094°52'3 6.0
2018-Feb-20 09:49N 29°17' W 094°54'4 2.3
2018-Feb-20 08:08N 29°17' W 094°59'1 4.3
2018-Feb-20 07:48N 29°16' W 094°60'1 4.1
2018-Feb-20 07:29N 29°15' W 095°01'2 4.7
2018-Feb-20 06:59N 29°13' W 095°02'3 4.9
2018-Feb-20 06:29N 29°11' W 095°05'56 5.1
2018-Feb-19 19:32N 28°41' W 095°59'1 3.8
2018-Feb-19 19:21N 28°42' W 095°59'2 4.4
2018-Feb-19 18:55N 28°44' W 095°58'2 4.0
2018-Feb-19 18:26N 28°45' W 095°60'66 2.8
2018-Feb-18 18:58N 29°17' W 094°54'3 4.4
2018-Feb-18 18:20N 29°19' W 094°52'2 6.0
2018-Feb-18 17:56N 29°20' W 094°50'3 5.6
2018-Feb-18 17:26N 29°23' W 094°49'5 7.3
2018-Feb-18 16:48N 29°27' W 094°51'2 6.6
2018-Feb-18 16:26N 29°29' W 094°52'3 6.4
2018-Feb-18 16:00N 29°32' W 094°54'3 6.2
2018-Feb-18 15:30N 29°34' W 094°56'3 6.0
2018-Feb-18 15:00N 29°37' W 094°57'3 6.0
2018-Feb-18 14:30N 29°40' W 094°59'3 6.0
2018-Feb-18 14:00N 29°42' W 095°01'3 5.4
2018-Feb-18 13:30N 29°44' W 095°03'3 5.5
2018-Feb-18 12:56N 29°47' W 095°05'1 0.1
2018-Feb-18 06:11N 29°47' W 095°04'0 1.3
2018-Feb-18 06:00N 29°47' W 095°05'0 0.2
2018-Feb-18 05:27N 29°47' W 095°05'2 0.3
2018-Feb-17 21:40N 29°45' W 095°04'1 6.0
2018-Feb-17 21:30N 29°44' W 095°03'2 4.9
2018-Feb-17 21:00N 29°43' W 095°01'3 5.3
2018-Feb-17 20:30N 29°41' W 094°59'2 4.6
2018-Feb-17 20:00N 29°39' W 094°58'3 6.3
2018-Feb-17 19:30N 29°36' W 094°57'3 6.4
2018-Feb-17 19:00N 29°33' W 094°55'3 6.3
2018-Feb-17 18:30N 29°31' W 094°53'10 1.2
2018-Feb-17 10:06N 29°21' W 094°49'0 0.0
2018-Feb-17 09:50N 29°21' W 094°49'0 0.0
2018-Feb-17 09:29N 29°21' W 094°49'0 0.0
2018-Feb-17 08:57N 29°21' W 094°49'0 0.0
2018-Feb-17 08:29N 29°21' W 094°49'0 0.0
2018-Feb-17 07:54N 29°21' W 094°49'0 0.0
2018-Feb-17 07:30N 29°21' W 094°49'0 0.0
2018-Feb-17 07:01N 29°21' W 094°49'0 0.0
2018-Feb-17 06:26N 29°21' W 094°49'0 0.0
2018-Feb-17 05:59N 29°21' W 094°49'0 0.0
2018-Feb-17 05:30N 29°21' W 094°49'0 0.0
2018-Feb-17 04:43N 29°21' W 094°49'0 0.0
2018-Feb-17 04:10N 29°21' W 094°49'0 0.0
2018-Feb-17 04:00N 29°21' W 094°49'0 0.0
2018-Feb-17 03:30N 29°21' W 094°49'0 0.0
2018-Feb-17 02:59N 29°21' W 094°49'0 0.0
2018-Feb-17 02:23N 29°21' W 094°49'0 0.1
2018-Feb-17 01:58N 29°21' W 094°49'2 4.2
2018-Feb-17 01:30N 29°20' W 094°51'3 5.4
2018-Feb-17 00:57N 29°17' W 094°53'1 2.8
2018-Feb-17 00:27N 29°17' W 094°55'3 4.0
2018-Feb-16 23:35N 29°17' W 094°59'0 0.1
2018-Feb-16 23:28N 29°17' W 094°59'32 2.1
2018-Feb-16 08:14N 28°54' W 095°25'0 0.0
2018-Feb-16 07:55N 28°54' W 095°25'0 0.0
2018-Feb-16 07:09N 28°54' W 095°25'0 0.0
2018-Feb-16 07:00N 28°54' W 095°25'0 0.0
2018-Feb-16 06:21N 28°54' W 095°25'0 0.0
2018-Feb-16 05:59N 28°54' W 095°25'0 0.0
2018-Feb-16 05:30N 28°54' W 095°25'0 0.0
2018-Feb-16 05:00N 28°54' W 095°25'0 0.0
2018-Feb-16 04:30N 28°54' W 095°25'0 0.0
2018-Feb-16 03:57N 28°54' W 095°25'0 0.0
2018-Feb-16 03:26N 28°54' W 095°25'0 0.0
2018-Feb-16 03:00N 28°54' W 095°25'0 0.0
2018-Feb-16 02:30N 28°54' W 095°25'0 0.0
2018-Feb-16 01:56N 28°54' W 095°25'0 0.0
2018-Feb-16 01:29N 28°54' W 095°25'0 0.0
2018-Feb-16 00:59N 28°54' W 095°25'0 0.1
2018-Feb-16 00:27N 28°54' W 095°25'1 1.5
2018-Feb-15 23:55N 28°53' W 095°25'4 4.5
2018-Feb-15 23:07N 28°52' W 095°29'1 4.8
2018-Feb-15 22:54N 28°51' W 095°30'11 1.2
2018-Feb-15 14:22N 28°46' W 095°40'0 0.0
2018-Feb-15 13:59N 28°46' W 095°40'0 0.0
2018-Feb-15 13:15N 28°46' W 095°40'0 0.0
2018-Feb-15 12:59N 28°46' W 095°40'0 0.0
2018-Feb-15 10:34N 28°46' W 095°40'0 0.0
2018-Feb-15 07:33N 28°46' W 095°40'0 0.0
2018-Feb-15 07:21N 28°46' W 095°40'0 0.0
2018-Feb-15 06:59N 28°46' W 095°40'0 0.0
2018-Feb-15 06:25N 28°46' W 095°40'0 0.0
2018-Feb-15 05:59N 28°46' W 095°40'0 0.0
2018-Feb-15 05:11N 28°46' W 095°40'0 0.0
2018-Feb-15 05:00N 28°46' W 095°40'0 0.1
2018-Feb-15 04:30N 28°46' W 095°40'0 0.0
2018-Feb-15 03:57N 28°46' W 095°40'0 0.1
2018-Feb-15 03:30N 28°46' W 095°40'0 0.0
2018-Feb-15 02:47N 28°46' W 095°40'0 0.0
2018-Feb-15 02:13N 28°46' W 095°40'  
Track history (hours):
 
Tides and Currents Weather Stations Pressure Air Temp Water Temp Dewpoint Dewpoint Depression Visibility Wind Speed Wind Dir Waves Ship Positions

Jerry W. Tichenor

Owner: Blessey Enterprises, Inc., harahan, LA. More information available from US FCC via Universal Licensing System and Coast Guard Vessel Documentation Center.

Last reported at 2018-Feb-20 13:30 UTC. Time now 2018-Feb-20 13:44 UTC.
Position N 29°21' W 094°49'.

Length 92 m; draft 9.6 m.

Type: Towing. MMSI: 366971520.

Date/timePositionNaut miles runAvg speedWind from/ knotsBaromVisibWave heightAir tempDewpointWater temp
2018-Feb-20 13:30N 29°21' W 094°49'0 0.0
2018-Feb-20 11:41N 29°21' W 094°49'0 0.0
2018-Feb-20 11:30N 29°21' W 094°49'0 0.0
2018-Feb-20 10:57N 29°21' W 094°49'3 4.6
2018-Feb-20 10:17N 29°19' W 094°52'3 6.0
2018-Feb-20 09:49N 29°17' W 094°54'4 2.3
2018-Feb-20 08:08N 29°17' W 094°59'1 4.3
2018-Feb-20 07:48N 29°16' W 094°60'1 4.1
2018-Feb-20 07:29N 29°15' W 095°01'2 4.7
2018-Feb-20 06:59N 29°13' W 095°02'3 4.9
2018-Feb-20 06:29N 29°11' W 095°05'56 5.1
2018-Feb-19 19:32N 28°41' W 095°59'1 3.8
2018-Feb-19 19:21N 28°42' W 095°59'2 4.4
2018-Feb-19 18:55N 28°44' W 095°58'2 4.0
2018-Feb-19 18:26N 28°45' W 095°60'66 2.8
2018-Feb-18 18:58N 29°17' W 094°54'3 4.4
2018-Feb-18 18:20N 29°19' W 094°52'2 6.0
2018-Feb-18 17:56N 29°20' W 094°50'3 5.6
2018-Feb-18 17:26N 29°23' W 094°49'5 7.3
2018-Feb-18 16:48N 29°27' W 094°51'2 6.6
2018-Feb-18 16:26N 29°29' W 094°52'3 6.4
2018-Feb-18 16:00N 29°32' W 094°54'3 6.2
2018-Feb-18 15:30N 29°34' W 094°56'3 6.0
2018-Feb-18 15:00N 29°37' W 094°57'3 6.0
2018-Feb-18 14:30N 29°40' W 094°59'3 6.0
2018-Feb-18 14:00N 29°42' W 095°01'3 5.4
2018-Feb-18 13:30N 29°44' W 095°03'3 5.5
2018-Feb-18 12:56N 29°47' W 095°05'1 0.1
2018-Feb-18 06:11N 29°47' W 095°04'0 1.3
2018-Feb-18 06:00N 29°47' W 095°05'0 0.2
2018-Feb-18 05:27N 29°47' W 095°05'2 0.3
2018-Feb-17 21:40N 29°45' W 095°04'1 6.0
2018-Feb-17 21:30N 29°44' W 095°03'2 4.9
2018-Feb-17 21:00N 29°43' W 095°01'3 5.3
2018-Feb-17 20:30N 29°41' W 094°59'2 4.6
2018-Feb-17 20:00N 29°39' W 094°58'3 6.3
2018-Feb-17 19:30N 29°36' W 094°57'3 6.4
2018-Feb-17 19:00N 29°33' W 094°55'3 6.3
2018-Feb-17 18:30N 29°31' W 094°53'10 1.2
2018-Feb-17 10:06N 29°21' W 094°49'0 0.0
2018-Feb-17 09:50N 29°21' W 094°49'0 0.0
2018-Feb-17 09:29N 29°21' W 094°49'0 0.0
2018-Feb-17 08:57N 29°21' W 094°49'0 0.0
2018-Feb-17 08:29N 29°21' W 094°49'0 0.0
2018-Feb-17 07:54N 29°21' W 094°49'0 0.0
2018-Feb-17 07:30N 29°21' W 094°49'0 0.0
2018-Feb-17 07:01N 29°21' W 094°49'0 0.0
2018-Feb-17 06:26N 29°21' W 094°49'0 0.0
2018-Feb-17 05:59N 29°21' W 094°49'0 0.0
2018-Feb-17 05:30N 29°21' W 094°49'0 0.0
2018-Feb-17 04:43N 29°21' W 094°49'0 0.0
2018-Feb-17 04:10N 29°21' W 094°49'0 0.0
2018-Feb-17 04:00N 29°21' W 094°49'0 0.0
2018-Feb-17 03:30N 29°21' W 094°49'0 0.0
2018-Feb-17 02:59N 29°21' W 094°49'0 0.0
2018-Feb-17 02:23N 29°21' W 094°49'0 0.1
2018-Feb-17 01:58N 29°21' W 094°49'2 4.2
2018-Feb-17 01:30N 29°20' W 094°51'3 5.4
2018-Feb-17 00:57N 29°17' W 094°53'1 2.8
2018-Feb-17 00:27N 29°17' W 094°55'3 4.0
2018-Feb-16 23:35N 29°17' W 094°59'0 0.1
2018-Feb-16 23:28N 29°17' W 094°59'32 2.1
2018-Feb-16 08:14N 28°54' W 095°25'0 0.0
2018-Feb-16 07:55N 28°54' W 095°25'0 0.0
2018-Feb-16 07:09N 28°54' W 095°25'0 0.0
2018-Feb-16 07:00N 28°54' W 095°25'0 0.0
2018-Feb-16 06:21N 28°54' W 095°25'0 0.0
2018-Feb-16 05:59N 28°54' W 095°25'0 0.0
2018-Feb-16 05:30N 28°54' W 095°25'0 0.0
2018-Feb-16 05:00N 28°54' W 095°25'0 0.0
2018-Feb-16 04:30N 28°54' W 095°25'0 0.0
2018-Feb-16 03:57N 28°54' W 095°25'0 0.0
2018-Feb-16 03:26N 28°54' W 095°25'0 0.0
2018-Feb-16 03:00N 28°54' W 095°25'0 0.0
2018-Feb-16 02:30N 28°54' W 095°25'0 0.0
2018-Feb-16 01:56N 28°54' W 095°25'0 0.0
2018-Feb-16 01:29N 28°54' W 095°25'0 0.0
2018-Feb-16 00:59N 28°54' W 095°25'0 0.1
2018-Feb-16 00:27N 28°54' W 095°25'1 1.5
2018-Feb-15 23:55N 28°53' W 095°25'4 4.5
2018-Feb-15 23:07N 28°52' W 095°29'1 4.8
2018-Feb-15 22:54N 28°51' W 095°30'11 1.2
2018-Feb-15 14:22N 28°46' W 095°40'0 0.0
2018-Feb-15 13:59N 28°46' W 095°40'0 0.0
2018-Feb-15 13:15N 28°46' W 095°40'0 0.0
2018-Feb-15 12:59N 28°46' W 095°40'0 0.0
2018-Feb-15 10:34N 28°46' W 095°40'0 0.0
2018-Feb-15 07:33N 28°46' W 095°40'0 0.0
2018-Feb-15 07:21N 28°46' W 095°40'0 0.0
2018-Feb-15 06:59N 28°46' W 095°40'0 0.0
2018-Feb-15 06:25N 28°46' W 095°40'0 0.0
2018-Feb-15 05:59N 28°46' W 095°40'0 0.0
2018-Feb-15 05:11N 28°46' W 095°40'0 0.0
2018-Feb-15 05:00N 28°46' W 095°40'0 0.1
2018-Feb-15 04:30N 28°46' W 095°40'0 0.0
2018-Feb-15 03:57N 28°46' W 095°40'0 0.1
2018-Feb-15 03:30N 28°46' W 095°40'0 0.0
2018-Feb-15 02:47N 28°46' W 095°40'0 0.0
2018-Feb-15 02:13N 28°46' W 095°40'  

Dump ship's entire track history